< < Back
Terminal Aerodrome Forecast


Current Version              Previous Versions:   1  2  3  4  5  6  7  8  9  

Terminal Aerodrome Forecast

419
FTUS44 KBMX 302342 RRA
TAFBHM
TAF
KBHM 302342Z 3100/3124 00000KT P6SM SKC
     FM311100 15002KT P6SM BKN040
     FM311200 22005KT P6SM BKN025
     FM311800 26006KT P6SM VCTS BKN025CB=

Latest METAR

492
SAUS70 KWBC 310000 RRA
MTRBHM
METAR KBHM 302353Z 33007KT 10SM CLR 21/06 A3012 RMK AO2 SLP194 T02060061
10239 20200 55009


USA.gov is the U.S. government's official web portal to all federal, state and local government web resources and services.